LFRT 121530Z AUTO 30013KT 5000 -RADZ BR BKN008 OVC012 10/09 Q1028

ElémentsDécodage
LFRT Station météo située sur l'aérodrome de SAINT-BRIEUC Armor
121530Z émis le 12 du mois à 15h30 UTC
AUTO Bulletin édité par un automate
30013KT vent du 300°, 13 noeuds
5000 visibilité horizontale de 5000 mètres
-RADZ faible pluie, bruine
BR brume
BKN008 nuages morcelés (5/8 à 7/8) à 800 pieds
OVC012 couverture nuageuse totale (8/8) à 1200 pieds
10/09 température 10°C, point de rosée 09°C
 soit une humidité relative de 94%
Q1028 la pression au niveau de la mer (QNH) est de 1028 hPa